createdAt,value
2022-08-17T00:00:40.310Z,100211.00
2022-08-17T00:03:19.421Z,100207.52
2022-08-17T00:05:54.513Z,100206.27
2022-08-17T00:08:28.856Z,100204.45
2022-08-17T00:11:00.918Z,100213.02
2022-08-17T00:13:34.989Z,100207.41
2022-08-17T00:16:09.638Z,100211.23
2022-08-17T00:19:06.342Z,100219.00
2022-08-17T00:22:29.971Z,100215.42
2022-08-17T00:24:29.375Z,100225.33
2022-08-17T00:27:01.999Z,100222.63
2022-08-17T00:29:33.624Z,100224.50
2022-08-17T00:33:12.432Z,100225.77
2022-08-17T00:34:58.503Z,100232.21
2022-08-17T00:37:30.235Z,100232.95
2022-08-17T00:40:01.945Z,100232.80
2022-08-17T00:42:33.829Z,100224.17
2022-08-17T00:45:07.178Z,100221.05
2022-08-17T00:47:38.987Z,100217.92
2022-08-17T00:50:14.229Z,100212.87
2022-08-17T00:52:52.107Z,100214.30
2022-08-17T00:55:24.494Z,100214.88
2022-08-17T00:57:59.706Z,100212.77
2022-08-17T01:00:37.152Z,100214.23
2022-08-17T01:03:13.376Z,100210.89
2022-08-17T01:05:45.481Z,100212.11
2022-08-17T01:08:20.675Z,100211.35
2022-08-17T01:11:00.186Z,100214.30
2022-08-17T01:13:41.006Z,100215.64
2022-08-17T01:16:18.232Z,100218.06
2022-08-17T01:18:53.224Z,100219.96
2022-08-17T01:21:32.903Z,100224.93
2022-08-17T01:24:05.614Z,100217.04
2022-08-17T01:26:39.645Z,100215.67
2022-08-17T01:29:12.770Z,100221.67
2022-08-17T01:31:48.374Z,100216.96
2022-08-17T01:34:22.347Z,100220.16
2022-08-17T01:36:54.909Z,100221.04
2022-08-17T01:39:31.608Z,100217.70
2022-08-17T01:42:08.486Z,100213.98
2022-08-17T01:44:42.817Z,100215.30
2022-08-17T01:47:14.930Z,100215.99
2022-08-17T01:49:46.610Z,100211.92
2022-08-17T01:52:18.473Z,100215.75
2022-08-17T01:54:52.511Z,100213.86
2022-08-17T01:57:24.323Z,100213.46
2022-08-17T01:59:56.262Z,100213.89
2022-08-17T02:02:30.483Z,100214.60
2022-08-17T02:05:03.141Z,100209.23
2022-08-17T02:07:59.375Z,100211.37
2022-08-17T02:10:33.702Z,100211.61
2022-08-17T02:13:06.882Z,100211.65
2022-08-17T02:15:38.739Z,100212.23
2022-08-17T02:18:11.800Z,100213.90
2022-08-17T02:20:44.207Z,100218.80
2022-08-17T02:23:16.581Z,100218.90
2022-08-17T02:25:49.028Z,100215.43
2022-08-17T02:28:21.088Z,100214.14
2022-08-17T02:31:01.353Z,100212.08
2022-08-17T02:33:43.011Z,100209.46
2022-08-17T02:36:14.055Z,100207.08
2022-08-17T02:38:45.656Z,100203.77
2022-08-17T02:41:17.597Z,100202.29
2022-08-17T02:43:49.168Z,100203.53
2022-08-17T02:46:20.900Z,100204.52
2022-08-17T02:48:52.575Z,100205.47
2022-08-17T02:51:24.227Z,100212.52
2022-08-17T02:54:41.100Z,100214.23
2022-08-17T02:56:47.575Z,100216.58
2022-08-17T02:59:19.226Z,100216.66
2022-08-17T03:01:51.222Z,100219.98
2022-08-17T03:04:23.193Z,100223.47
2022-08-17T03:06:54.853Z,100224.63
2022-08-17T03:09:26.414Z,100228.40
2022-08-17T03:12:04.321Z,100231.70
2022-08-17T03:14:41.258Z,100234.69
2022-08-17T03:17:13.860Z,100231.46
2022-08-17T03:19:49.217Z,100234.06
2022-08-17T03:22:47.939Z,100237.05
2022-08-17T03:25:15.242Z,100234.85
2022-08-17T03:27:51.658Z,100233.70
2022-08-17T03:30:24.640Z,100238.27
2022-08-17T03:32:59.635Z,100237.80
2022-08-17T03:35:34.389Z,100235.34
2022-08-17T03:38:06.543Z,100235.81
2022-08-17T03:40:57.101Z,100238.13
2022-08-17T03:43:33.760Z,100239.36
2022-08-17T03:46:34.423Z,100246.13
2022-08-17T03:49:27.485Z,100239.71
2022-08-17T03:52:17.378Z,100242.45
2022-08-17T03:55:18.404Z,100236.85
2022-08-17T03:57:50.106Z,100242.17
2022-08-17T04:00:21.999Z,100242.63
2022-08-17T04:02:58.716Z,100246.94
2022-08-17T04:05:30.444Z,100249.66
2022-08-17T04:08:08.183Z,100248.86
2022-08-17T04:10:44.962Z,100242.94
2022-08-17T04:13:24.841Z,100241.98
2022-08-17T04:15:57.460Z,100245.98
2022-08-17T04:18:29.268Z,100248.92
2022-08-17T04:21:01.258Z,100251.45
2022-08-17T04:23:35.097Z,100252.84
2022-08-17T04:26:06.990Z,100253.52
2022-08-17T04:28:38.957Z,100254.10
2022-08-17T04:31:10.849Z,100252.52
2022-08-17T04:33:44.071Z,100254.80
2022-08-17T04:36:16.905Z,100250.33
2022-08-17T04:38:48.578Z,100253.95
2022-08-17T04:41:37.733Z,100253.25
2022-08-17T04:44:09.276Z,100256.61
2022-08-17T04:46:41.451Z,100254.85
2022-08-17T04:49:14.070Z,100254.40
2022-08-17T04:51:56.164Z,100258.45
2022-08-17T04:54:28.589Z,100260.47
2022-08-17T04:57:00.482Z,100257.67
2022-08-17T04:59:32.201Z,100265.08
2022-08-17T05:02:03.920Z,100262.05
2022-08-17T05:04:35.656Z,100267.73
2022-08-17T05:07:08.005Z,100265.80
2022-08-17T05:09:39.612Z,100262.22
2022-08-17T05:12:11.574Z,100263.66
2022-08-17T05:14:43.126Z,100265.40
2022-08-17T05:17:14.778Z,100261.94
2022-08-17T05:19:51.779Z,100264.71
2022-08-17T05:22:23.701Z,100262.73
2022-08-17T05:24:56.001Z,100261.73
2022-08-17T05:27:34.436Z,100263.30
2022-08-17T05:30:09.859Z,100267.71
2022-08-17T05:32:56.669Z,100268.46
2022-08-17T05:35:29.792Z,100271.54
2022-08-17T05:38:02.005Z,100275.27
2022-08-17T05:40:33.624Z,100278.38
2022-08-17T05:43:10.609Z,100278.35
2022-08-17T05:45:55.191Z,100277.88
2022-08-17T05:48:39.072Z,100276.27
2022-08-17T05:51:31.321Z,100273.85
2022-08-17T05:54:18.861Z,100272.55
2022-08-17T05:57:04.356Z,100278.48
2022-08-17T05:59:46.417Z,100280.25
2022-08-17T06:02:23.590Z,100282.44
2022-08-17T06:05:10.814Z,100282.42
2022-08-17T06:07:50.002Z,100284.08
2022-08-17T06:10:29.462Z,100289.36
2022-08-17T06:13:17.927Z,100285.20
2022-08-17T06:16:00.406Z,100286.89
2022-08-17T06:18:40.430Z,100287.56
2022-08-17T06:21:18.359Z,100289.33
2022-08-17T06:24:03.193Z,100299.19
2022-08-17T06:26:43.054Z,100298.48
2022-08-17T06:29:24.490Z,100301.79
2022-08-17T06:31:56.314Z,100301.04
2022-08-17T06:34:28.236Z,100303.36
2022-08-17T06:37:15.477Z,100306.92
2022-08-17T06:39:56.686Z,100308.67
2022-08-17T06:42:54.943Z,100311.64
2022-08-17T06:45:36.396Z,100312.09
2022-08-17T06:48:16.372Z,100308.53
2022-08-17T06:50:54.080Z,100311.42
2022-08-17T06:53:30.077Z,100315.69
2022-08-17T06:56:06.376Z,100322.02
2022-08-17T06:58:40.435Z,100327.96
2022-08-17T07:01:16.659Z,100327.28
2022-08-17T07:03:55.029Z,100329.58
2022-08-17T07:06:33.902Z,100329.23
2022-08-17T07:09:15.941Z,100333.67
2022-08-17T07:11:54.301Z,100332.42
2022-08-17T07:14:36.898Z,100330.40
2022-08-17T07:17:11.742Z,100333.86
2022-08-17T07:19:46.483Z,100334.96
2022-08-17T07:22:53.634Z,100340.63
2022-08-17T07:25:25.737Z,100340.44
2022-08-17T07:28:00.356Z,100335.56
2022-08-17T07:30:37.173Z,100330.57
2022-08-17T07:33:22.853Z,100327.39
2022-08-17T07:35:54.917Z,100328.30
2022-08-17T07:38:28.733Z,100327.90
2022-08-17T07:41:06.389Z,100332.39
2022-08-17T07:43:48.234Z,100334.17
2022-08-17T07:46:40.363Z,100337.08
2022-08-17T07:49:35.327Z,100338.80
2022-08-17T07:52:47.292Z,100336.79
2022-08-17T07:55:23.047Z,100337.31
2022-08-17T07:58:00.265Z,100336.45
2022-08-17T08:00:33.729Z,100327.75
2022-08-17T08:03:27.332Z,100326.31
2022-08-17T08:06:03.166Z,100327.38
2022-08-17T08:08:38.971Z,100324.88
2022-08-17T08:11:15.415Z,100331.38
2022-08-17T08:13:50.006Z,100327.86
2022-08-17T08:16:30.350Z,100333.45
2022-08-17T08:19:03.520Z,100334.53
2022-08-17T08:21:47.582Z,100337.27
2022-08-17T08:24:36.597Z,100339.01
2022-08-17T08:27:23.118Z,100335.36
2022-08-17T08:29:58.289Z,100336.23
2022-08-17T08:32:42.918Z,100341.11
2022-08-17T08:35:26.787Z,100340.36
2022-08-17T08:38:07.652Z,100345.77
2022-08-17T08:40:57.457Z,100346.30
2022-08-17T08:43:38.851Z,100348.42
2022-08-17T08:46:20.070Z,100341.75
2022-08-17T08:49:39.038Z,100338.65
2022-08-17T08:52:28.353Z,100344.22
2022-08-17T08:55:07.647Z,100346.75
2022-08-17T08:57:47.149Z,100341.61
2022-08-17T09:00:21.434Z,100339.70
2022-08-17T09:03:49.705Z,100343.52
2022-08-17T09:06:39.477Z,100344.80
2022-08-17T09:09:21.453Z,100341.87
2022-08-17T09:12:04.132Z,100338.68
2022-08-17T09:14:45.256Z,100341.92
2022-08-17T09:17:22.426Z,100340.45
2022-08-17T09:20:00.096Z,100340.97
2022-08-17T09:22:38.506Z,100337.67
2022-08-17T09:25:13.389Z,100341.19
2022-08-17T09:27:53.570Z,100339.90
2022-08-17T09:30:23.861Z,100338.16
2022-08-17T09:32:59.796Z,100332.72
2022-08-17T09:35:39.623Z,100334.66
2022-08-17T09:38:30.323Z,100340.32
2022-08-17T09:41:13.678Z,100337.33
2022-08-17T09:43:53.224Z,100335.05
2022-08-17T09:46:31.153Z,100333.48
2022-08-17T09:49:09.840Z,100330.73
2022-08-17T09:51:48.215Z,100335.46
2022-08-17T09:54:39.127Z,100332.52
2022-08-17T09:57:30.409Z,100328.63
2022-08-17T10:00:18.895Z,100326.07
2022-08-17T10:03:11.958Z,100323.21
2022-08-17T10:05:47.990Z,100323.98
2022-08-17T10:08:32.572Z,100324.66
2022-08-17T10:11:14.275Z,100322.13
2022-08-17T10:13:53.485Z,100317.44
2022-08-17T10:16:32.102Z,100322.55
2022-08-17T10:19:11.558Z,100321.13
2022-08-17T10:22:32.604Z,100320.40
2022-08-17T10:25:22.935Z,100321.06
2022-08-17T10:27:59.854Z,100319.88
2022-08-17T10:30:35.882Z,100318.41
2022-08-17T10:33:16.147Z,100317.13
2022-08-17T10:35:53.598Z,100320.83
2022-08-17T10:38:42.321Z,100320.98
2022-08-17T10:41:34.730Z,100318.63
2022-08-17T10:44:38.119Z,100317.34
2022-08-17T10:47:11.520Z,100315.88
2022-08-17T10:49:47.969Z,100311.13
2022-08-17T10:52:51.915Z,100309.04
2022-08-17T10:55:25.859Z,100316.35
2022-08-17T10:58:24.630Z,100311.92
2022-08-17T11:01:04.029Z,100311.00
2022-08-17T11:03:36.095Z,100308.27
2022-08-17T11:06:21.626Z,100309.46
2022-08-17T11:09:24.500Z,100310.42
2022-08-17T11:12:27.282Z,100309.92
2022-08-17T11:15:15.934Z,100317.30
2022-08-17T11:18:03.532Z,100315.58
2022-08-17T11:21:04.838Z,100308.89
2022-08-17T11:23:54.913Z,100308.33
2022-08-17T11:26:29.819Z,100304.73
2022-08-17T11:29:09.045Z,100303.13
2022-08-17T11:31:44.176Z,100300.40
2022-08-17T11:34:26.372Z,100295.29
2022-08-17T11:37:38.668Z,100301.16
2022-08-17T11:40:38.990Z,100300.45
2022-08-17T11:43:46.299Z,100301.74
2022-08-17T11:46:54.298Z,100301.13
2022-08-17T11:50:11.522Z,100299.04
2022-08-17T11:52:46.733Z,100301.17
2022-08-17T11:55:50.742Z,100295.98
2022-08-17T11:58:42.199Z,100294.95
2022-08-17T12:01:16.254Z,100291.71
2022-08-17T12:03:55.797Z,100298.43
2022-08-17T12:06:41.241Z,100294.05
2022-08-17T12:09:18.619Z,100286.05
2022-08-17T12:12:13.319Z,100287.02
2022-08-17T12:15:09.639Z,100281.69
2022-08-17T12:17:48.500Z,100279.33
2022-08-17T12:20:25.614Z,100275.13
2022-08-17T12:23:07.680Z,100276.33
2022-08-17T12:25:44.312Z,100283.25
2022-08-17T12:28:26.858Z,100281.43
2022-08-17T12:31:02.503Z,100283.59
2022-08-17T12:33:36.706Z,100287.44
2022-08-17T12:36:15.254Z,100289.42
2022-08-17T12:38:53.738Z,100287.64
2022-08-17T12:41:39.021Z,100282.69
2022-08-17T12:44:16.750Z,100285.09
2022-08-17T12:46:56.064Z,100287.23
2022-08-17T12:49:31.828Z,100283.02
2022-08-17T12:52:16.019Z,100274.80
2022-08-17T12:54:54.652Z,100277.55
2022-08-17T12:57:33.244Z,100275.41
2022-08-17T13:00:17.821Z,100270.81
2022-08-17T13:02:53.347Z,100274.67
2022-08-17T13:05:28.813Z,100269.23
2022-08-17T13:08:04.519Z,100273.80
2022-08-17T13:10:37.888Z,100271.00
2022-08-17T13:13:21.952Z,100269.38
2022-08-17T13:15:57.234Z,100266.20
2022-08-17T13:18:42.901Z,100267.17
2022-08-17T13:21:30.804Z,100263.89
2022-08-17T13:24:05.763Z,100256.46
2022-08-17T13:26:40.414Z,100250.54
2022-08-17T13:29:26.056Z,100253.04
2022-08-17T13:32:16.325Z,100249.67
2022-08-17T13:35:12.993Z,100248.73
2022-08-17T13:38:01.421Z,100249.52
2022-08-17T13:40:41.733Z,100257.16
2022-08-17T13:43:13.636Z,100256.69
2022-08-17T13:45:52.392Z,100256.73
2022-08-17T13:48:28.364Z,100252.50
2022-08-17T13:51:21.276Z,100252.67
2022-08-17T13:53:57.782Z,100248.58
2022-08-17T13:56:38.867Z,100250.27
2022-08-17T13:59:14.325Z,100249.97
2022-08-17T14:01:53.598Z,100253.14
2022-08-17T14:04:28.066Z,100253.05
2022-08-17T14:07:01.926Z,100248.14
2022-08-17T14:09:37.705Z,100245.89
2022-08-17T14:12:15.514Z,100250.64
2022-08-17T14:14:47.763Z,100250.26
2022-08-17T14:17:20.183Z,100247.42
2022-08-17T14:19:52.358Z,100244.92
2022-08-17T14:22:27.047Z,100238.97
2022-08-17T14:24:59.708Z,100248.30
2022-08-17T14:27:34.690Z,100248.95
2022-08-17T14:30:26.987Z,100250.92
2022-08-17T14:33:02.359Z,100251.60
2022-08-17T14:35:34.545Z,100248.05
2022-08-17T14:38:06.230Z,100249.90
2022-08-17T14:40:39.287Z,100248.33
2022-08-17T14:43:11.049Z,100248.66
2022-08-17T14:45:42.608Z,100250.13
2022-08-17T14:48:14.553Z,100247.98
2022-08-17T14:50:46.428Z,100249.83
2022-08-17T14:53:20.391Z,100250.15
2022-08-17T14:55:53.651Z,100248.14
2022-08-17T14:58:26.097Z,100245.82
2022-08-17T15:00:58.238Z,100250.48
2022-08-17T15:03:30.627Z,100252.54
2022-08-17T15:06:02.815Z,100256.36
2022-08-17T15:08:34.498Z,100254.76
2022-08-17T15:11:07.076Z,100253.92
2022-08-17T15:13:52.850Z,100247.65
2022-08-17T15:16:24.787Z,100248.70
2022-08-17T15:18:56.388Z,100251.94
2022-08-17T15:21:28.077Z,100251.55
2022-08-17T15:24:00.050Z,100256.42
2022-08-17T15:26:31.789Z,100258.12
2022-08-17T15:29:03.462Z,100262.10
2022-08-17T15:31:35.606Z,100256.48
2022-08-17T15:34:07.906Z,100256.40
2022-08-17T15:36:40.665Z,100259.80
2022-08-17T15:39:22.209Z,100260.35
2022-08-17T15:41:58.385Z,100261.40
2022-08-17T15:44:32.676Z,100262.54
2022-08-17T15:47:06.976Z,100252.05
2022-08-17T15:49:41.439Z,100253.20
2022-08-17T15:52:21.722Z,100254.35
2022-08-17T15:54:55.353Z,100250.13
2022-08-17T15:57:28.256Z,100253.84
2022-08-17T16:00:00.298Z,100250.22
2022-08-17T16:03:44.795Z,100256.91
2022-08-17T16:05:30.142Z,100255.88
2022-08-17T16:08:03.202Z,100257.63
2022-08-17T16:10:35.979Z,100260.39
2022-08-17T16:13:17.765Z,100255.70
2022-08-17T16:15:56.669Z,100251.77
2022-08-17T16:18:31.763Z,100250.45
2022-08-17T16:21:19.771Z,100250.42
2022-08-17T16:23:53.708Z,100249.38
2022-08-17T16:26:26.325Z,100247.30
2022-08-17T16:29:00.773Z,100246.70
2022-08-17T16:31:33.061Z,100247.44
2022-08-17T16:34:16.838Z,100246.45
2022-08-17T16:36:55.969Z,100246.62
2022-08-17T16:39:30.862Z,100244.68
2022-08-17T16:42:03.179Z,100249.80
2022-08-17T16:44:35.032Z,100249.15
2022-08-17T16:47:07.468Z,100246.59
2022-08-17T16:49:39.502Z,100251.48
2022-08-17T16:52:11.956Z,100252.45
2022-08-17T16:54:47.165Z,100255.71
2022-08-17T16:57:19.710Z,100257.49
2022-08-17T16:59:51.703Z,100254.36
2022-08-17T17:02:32.159Z,100255.73
2022-08-17T17:05:08.303Z,100255.38
2022-08-17T17:08:00.945Z,100254.07
2022-08-17T17:10:38.847Z,100255.54
2022-08-17T17:13:19.154Z,100254.27
2022-08-17T17:15:58.595Z,100248.08
2022-08-17T17:18:39.750Z,100249.72
2022-08-17T17:21:17.628Z,100251.07
2022-08-17T17:23:56.113Z,100251.23
2022-08-17T17:26:49.439Z,100254.13
2022-08-17T17:29:46.566Z,100255.11
2022-08-17T17:32:29.702Z,100256.38
2022-08-17T17:35:06.697Z,100261.21
2022-08-17T17:37:39.198Z,100263.16
2022-08-17T17:40:23.186Z,100258.73
2022-08-17T17:43:14.237Z,100259.64
2022-08-17T17:45:52.353Z,100262.83
2022-08-17T17:48:24.358Z,100263.59
2022-08-17T17:51:09.493Z,100272.80
2022-08-17T17:53:52.246Z,100275.17
2022-08-17T17:56:44.020Z,100272.73
2022-08-17T17:59:26.779Z,100266.09
2022-08-17T18:02:05.517Z,100264.99
2022-08-17T18:04:46.471Z,100262.04
2022-08-17T18:07:30.234Z,100258.27
2022-08-17T18:10:29.885Z,100255.63
2022-08-17T18:13:12.800Z,100255.88
2022-08-17T18:15:51.540Z,100252.54
2022-08-17T18:18:40.478Z,100255.27
2022-08-17T18:21:17.007Z,100257.20
2022-08-17T18:23:55.805Z,100265.60
2022-08-17T18:26:50.306Z,100268.98
2022-08-17T18:29:34.526Z,100277.41
2022-08-17T18:32:28.044Z,100270.49
2022-08-17T18:35:28.005Z,100264.71
2022-08-17T18:38:20.440Z,100265.41
2022-08-17T18:41:03.151Z,100266.98
2022-08-17T18:43:52.716Z,100274.21
2022-08-17T18:46:30.482Z,100280.58
2022-08-17T18:49:05.401Z,100277.98
2022-08-17T18:51:43.272Z,100276.59
2022-08-17T18:54:21.377Z,100276.39
2022-08-17T18:56:55.484Z,100274.59
2022-08-17T18:59:36.619Z,100277.45
2022-08-17T19:02:44.638Z,100277.30
2022-08-17T19:05:32.094Z,100281.21
2022-08-17T19:08:21.101Z,100275.05
2022-08-17T19:10:56.882Z,100278.27
2022-08-17T19:13:36.646Z,100278.91
2022-08-17T19:16:15.758Z,100283.04
2022-08-17T19:18:52.737Z,100286.54
2022-08-17T19:21:28.605Z,100292.58
2022-08-17T19:24:06.232Z,100291.34
2022-08-17T19:26:53.927Z,100293.16
2022-08-17T19:29:38.433Z,100295.41
2022-08-17T19:32:12.479Z,100296.77
2022-08-17T19:34:44.632Z,100295.30
2022-08-17T19:37:36.613Z,100303.95
2022-08-17T19:40:41.770Z,100314.71
2022-08-17T19:43:22.046Z,100310.39
2022-08-17T19:46:01.587Z,100310.16
2022-08-17T19:48:47.081Z,100307.02
2022-08-17T19:51:35.551Z,100308.05
2022-08-17T19:54:14.365Z,100306.79
2022-08-17T19:56:55.790Z,100302.09
2022-08-17T19:59:46.525Z,100303.17
2022-08-17T20:02:26.613Z,100292.45
2022-08-17T20:05:02.938Z,100285.61
2022-08-17T20:07:44.626Z,100284.06
2022-08-17T20:10:34.253Z,100278.41
2022-08-17T20:13:13.558Z,100278.86
2022-08-17T20:15:46.938Z,100280.48
2022-08-17T20:18:25.424Z,100281.27
2022-08-17T20:21:03.769Z,100275.13
2022-08-17T20:23:46.533Z,100276.77
2022-08-17T20:26:23.205Z,100285.05
2022-08-17T20:29:37.182Z,100287.29
2022-08-17T20:32:27.970Z,100288.77
2022-08-17T20:35:27.510Z,100289.30
2022-08-17T20:38:02.346Z,100293.36
2022-08-17T20:40:38.285Z,100292.25
2022-08-17T20:43:45.057Z,100284.70
2022-08-17T20:46:34.395Z,100287.72
2022-08-17T20:49:27.961Z,100286.00
2022-08-17T20:52:07.804Z,100278.61
2022-08-17T20:54:53.006Z,100272.38
2022-08-17T20:57:47.988Z,100273.26
2022-08-17T21:00:45.738Z,100272.64
2022-08-17T21:03:51.020Z,100279.04
2022-08-17T21:06:26.141Z,100285.02
2022-08-17T21:09:19.535Z,100287.86
2022-08-17T21:12:05.576Z,100286.92
2022-08-17T21:15:02.285Z,100285.48
2022-08-17T21:17:49.975Z,100282.94
2022-08-17T21:20:35.651Z,100287.87
2022-08-17T21:23:32.950Z,100287.91
2022-08-17T21:26:30.139Z,100290.05
2022-08-17T21:29:29.879Z,100292.19
2022-08-17T21:32:24.233Z,100288.22
2022-08-17T21:35:28.677Z,100291.20
2022-08-17T21:38:06.262Z,100294.80
2022-08-17T21:40:38.337Z,100291.26
2022-08-17T21:43:24.582Z,100288.81
2022-08-17T21:46:04.614Z,100290.71
2022-08-17T21:48:44.696Z,100292.61
2022-08-17T21:51:22.051Z,100290.31
2022-08-17T21:53:56.823Z,100287.27
2022-08-17T21:56:32.857Z,100289.04
2022-08-17T21:59:06.471Z,100287.89
2022-08-17T22:01:40.928Z,100284.65
2022-08-17T22:04:25.421Z,100285.72
2022-08-17T22:06:58.960Z,100287.11
2022-08-17T22:09:33.130Z,100293.08
2022-08-17T22:12:11.434Z,100295.05
2022-08-17T22:14:53.095Z,100296.23
2022-08-17T22:17:27.909Z,100301.15
2022-08-17T22:20:02.573Z,100301.50
2022-08-17T22:22:59.947Z,100302.64
2022-08-17T22:25:32.636Z,100308.27
2022-08-17T22:28:06.539Z,100309.11
2022-08-17T22:30:40.203Z,100311.73
2022-08-17T22:33:38.602Z,100310.83
2022-08-17T22:36:28.910Z,100311.40
2022-08-17T22:39:23.242Z,100315.59
2022-08-17T22:41:59.484Z,100318.27
2022-08-17T22:44:35.701Z,100321.87
2022-08-17T22:47:24.267Z,100325.98
2022-08-17T22:49:58.985Z,100325.12
2022-08-17T22:52:35.689Z,100323.14
2022-08-17T22:55:32.694Z,100325.75
2022-08-17T22:58:28.234Z,100325.86
2022-08-17T23:01:28.344Z,100328.39
2022-08-17T23:04:02.376Z,100326.95
2022-08-17T23:06:35.461Z,100328.31
2022-08-17T23:09:08.490Z,100328.08
2022-08-17T23:11:49.979Z,100329.86
2022-08-17T23:14:23.244Z,100325.88
2022-08-17T23:16:54.952Z,100323.32
2022-08-17T23:19:27.501Z,100323.64
2022-08-17T23:22:00.645Z,100316.85
2022-08-17T23:24:36.218Z,100317.30
2022-08-17T23:27:07.873Z,100320.16
2022-08-17T23:29:42.181Z,100318.39
2022-08-17T23:32:16.373Z,100322.83
2022-08-17T23:34:49.537Z,100332.14
2022-08-17T23:37:21.769Z,100329.20
2022-08-17T23:39:53.585Z,100331.56
2022-08-17T23:42:25.535Z,100327.70
2022-08-17T23:44:57.234Z,100325.29
2022-08-17T23:47:29.115Z,100325.30
2022-08-17T23:50:02.491Z,100328.88
2022-08-17T23:52:36.968Z,100327.69
2022-08-17T23:55:10.460Z,100329.41
2022-08-17T23:57:42.722Z,100324.13
